Time;durP1;ratioP1;P1;durP2;ratioP2;P2;SDS_P1;SDS_P2;PMS_P1;PMS_P2;Temp;Humidity;BMP_temperature;BMP_pressure;BME280_temperature;BME280_humidity;BME280_pressure;Samples;Min_cycle;Max_cycle;Signal;HPM_P1;HPM_P2
2021/07/20 00:02:17;;;;;;;0.40;0.00;;;;;;;19.21;57.82;100328.49;125983;1095;114559;-62
2021/07/20 00:04:44;;;;;;;0.40;0.10;;;;;;;19.24;57.78;100329.28;126135;1096;103098;-62
2021/07/20 00:07:11;;;;;;;0.40;0.00;;;;;;;19.20;58.20;100334.85;126153;1096;103371;-62
2021/07/20 00:09:40;;;;;;;0.40;0.10;;;;;;;19.21;57.98;100338.44;126344;1095;114667;-62
2021/07/20 00:12:07;;;;;;;0.40;0.10;;;;;;;19.17;58.20;100324.26;126078;1096;103119;-62
2021/07/20 00:14:34;;;;;;;0.40;0.00;;;;;;;19.17;58.16;100324.26;125993;1096;114311;-62
2021/07/20 00:17:03;;;;;;;0.40;0.00;;;;;;;19.12;58.18;100334.48;126167;1096;102917;-62
2021/07/20 00:19:31;;;;;;;0.40;0.10;;;;;;;19.08;58.44;100324.84;126274;1096;103030;-62
2021/07/20 00:21:58;;;;;;;0.40;0.10;;;;;;;19.09;58.89;100328.42;126277;1095;114276;-62
2021/07/20 00:24:26;;;;;;;0.40;0.00;;;;;;;19.14;58.51;100327.16;126149;1095;103055;-62
2021/07/20 00:26:53;;;;;;;0.40;0.00;;;;;;;19.17;58.35;100320.70;126107;1096;114584;-62
2021/07/20 00:29:21;;;;;;;0.40;0.03;;;;;;;19.20;58.36;100331.30;126158;1096;102965;-62
2021/07/20 00:31:48;;;;;;;0.40;0.10;;;;;;;19.20;58.53;100328.59;126136;1095;103151;-62
2021/07/20 00:34:15;;;;;;;0.40;0.10;;;;;;;19.18;58.38;100325.11;126037;1095;114472;-62
2021/07/20 00:36:42;;;;;;;0.40;0.00;;;;;;;19.17;58.62;100321.55;126147;1096;102994;-62
2021/07/20 00:39:09;;;;;;;0.40;0.00;;;;;;;19.16;58.81;100310.86;126054;1095;114653;-62
2021/07/20 00:41:36;;;;;;;0.40;0.10;;;;;;;19.17;58.92;100313.45;126100;1096;103015;-62
2021/07/20 00:44:04;;;;;;;0.40;0.10;;;;;;;19.16;58.95;100311.72;126123;1095;114034;-62
2021/07/20 00:46:31;;;;;;;0.40;0.10;;;;;;;19.17;58.78;100309.91;126179;1095;102893;-62
2021/07/20 00:48:58;;;;;;;0.40;0.10;;;;;;;19.17;58.86;100309.91;126145;1095;103399;-62
2021/07/20 00:51:26;;;;;;;0.40;0.00;;;;;;;19.19;58.86;100299.86;125998;1095;114867;-62
2021/07/20 00:53:53;;;;;;;0.40;0.00;;;;;;;19.21;58.60;100301.50;126031;1096;102962;-62
2021/07/20 00:56:20;;;;;;;0.40;0.10;;;;;;;19.16;58.86;100305.46;125926;1095;115015;-62
2021/07/20 00:58:48;;;;;;;0.40;0.10;;;;;;;19.13;58.40;100301.13;126012;1095;102950;-62
2021/07/20 01:01:15;;;;;;;0.40;0.00;;;;;;;19.10;58.78;100298.63;125988;1095;102949;-62
2021/07/20 01:03:43;;;;;;;0.40;0.07;;;;;;;19.04;58.53;100293.61;125923;1096;114207;-62
2021/07/20 01:06:10;;;;;;;0.40;0.00;;;;;;;19.03;58.76;100297.27;125954;1094;102947;-62
2021/07/20 01:08:40;;;;;;;0.40;0.00;;;;;;;18.89;58.82;100300.84;125986;1095;115006;-62
2021/07/20 01:11:08;;;;;;;0.40;0.10;;;;;;;18.83;59.27;100299.38;126226;1096;102920;-62
2021/07/20 01:13:36;;;;;;;0.40;0.10;;;;;;;18.82;59.17;100302.15;126018;1096;103051;-62
2021/07/20 01:16:05;;;;;;;0.40;0.10;;;;;;;18.83;59.29;100301.19;127494;1096;114205;-62
2021/07/20 01:18:34;;;;;;;0.40;0.10;;;;;;;18.77;59.46;100297.05;126013;1096;102920;-62
2021/07/20 01:21:01;;;;;;;0.40;0.10;;;;;;;18.80;59.59;100298.69;126254;1095;114220;-62
2021/07/20 01:23:45;;;;;;;0.40;0.10;;;;;;;18.83;59.85;100304.78;126009;1095;102972;-62
2021/07/20 01:26:13;;;;;;;0.40;0.10;;;;;;;18.76;59.25;100283.66;126021;1096;114782;-62
2021/07/20 01:28:41;;;;;;;0.40;0.10;;;;;;;18.78;59.86;100292.52;126138;1095;103039;-62
2021/07/20 01:31:27;;;;;;;0.40;0.10;;;;;;;18.69;59.75;100296.67;126023;1096;102921;-62
2021/07/20 01:33:55;;;;;;;0.40;0.10;;;;;;;18.76;59.60;100302.55;125892;1096;114436;-62
2021/07/20 01:36:23;;;;;;;0.40;0.10;;;;;;;18.85;59.47;100291.19;126015;1095;102927;-62
2021/07/20 01:38:51;;;;;;;0.40;0.10;;;;;;;18.83;59.55;100293.98;125984;1096;114235;-62
2021/07/20 01:41:19;;;;;;;0.40;0.10;;;;;;;18.84;59.33;100289.44;126003;1095;102913;-62
2021/07/20 01:43:50;;;;;;;0.40;0.00;;;;;;;18.88;58.79;100281.08;126108;1095;102897;-62
2021/07/20 01:46:19;;;;;;;0.40;0.10;;;;;;;18.93;59.25;100278.10;126002;1095;114389;-62
2021/07/20 01:48:50;;;;;;;0.40;0.00;;;;;;;18.90;59.15;100269.33;126208;1096;102916;-62
2021/07/20 01:51:18;;;;;;;0.40;0.10;;;;;;;18.96;59.11;100279.73;126036;1095;114175;-62
2021/07/20 01:53:45;;;;;;;0.40;0.00;;;;;;;18.92;59.02;100276.36;125939;1095;103431;-62
2021/07/20 01:56:13;;;;;;;0.40;0.10;;;;;;;18.88;59.51;100283.77;125920;1095;114490;-62
2021/07/20 01:58:43;;;;;;;0.40;0.00;;;;;;;18.79;59.59;100283.46;126389;1095;103040;-62
2021/07/20 02:01:23;;;;;;;0.40;0.10;;;;;;;18.74;59.99;100282.88;125936;1096;103190;-62
2021/07/20 02:09:10;;;;;;;0.40;0.10;;;;;;;18.66;60.20;100288.74;125945;1095;114523;-62
2021/07/20 02:11:38;;;;;;;0.40;0.10;;;;;;;18.62;60.56;100290.78;126054;1095;102988;-62
2021/07/20 02:14:10;;;;;;;0.40;0.00;;;;;;;18.63;60.36;100283.55;126023;1095;114526;-62
2021/07/20 02:16:44;;;;;;;0.40;0.00;;;;;;;18.61;60.60;100282.80;126110;1095;103023;-62
2021/07/20 02:19:18;;;;;;;0.40;0.08;;;;;;;18.50;60.71;100283.42;126027;1095;103196;-62
2021/07/20 02:21:50;;;;;;;0.40;0.10;;;;;;;18.47;60.90;100289.02;125855;1096;114496;-62
2021/07/20 02:24:19;;;;;;;0.40;0.10;;;;;;;18.50;60.87;100283.42;126088;1094;102895;-61
2021/07/20 02:26:47;;;;;;;0.40;0.00;;;;;;;18.61;60.39;100285.48;125941;1095;114391;-63
2021/07/20 02:29:17;;;;;;;0.40;0.10;;;;;;;18.63;60.53;100286.25;126158;1096;102894;-63
2021/07/20 02:31:45;;;;;;;0.40;0.08;;;;;;;18.62;60.66;100288.09;126028;1096;102922;-63
2021/07/20 02:34:14;;;;;;;0.40;0.10;;;;;;;18.48;60.75;100293.45;126008;1096;114454;-63
2021/07/20 02:36:41;;;;;;;0.40;0.03;;;;;;;18.50;60.56;100291.52;126173;1095;102981;-63
2021/07/20 02:39:10;;;;;;;0.40;0.00;;;;;;;18.60;60.40;100292.70;126021;1095;114175;-63
2021/07/20 02:41:37;;;;;;;0.40;0.00;;;;;;;18.62;60.67;100296.18;126163;1096;102900;-63
2021/07/20 02:44:06;;;;;;;0.40;0.10;;;;;;;18.58;60.65;100299.14;125840;1096;113700;-63
2021/07/20 02:46:35;;;;;;;0.40;0.10;;;;;;;18.58;60.64;100310.82;126200;1095;103321;-63
2021/07/20 02:49:03;;;;;;;0.40;0.10;;;;;;;18.59;60.96;100306.28;126049;1096;104398;-63
2021/07/20 02:51:32;;;;;;;0.40;0.10;;;;;;;18.51;60.98;100309.44;125989;1095;114183;-63
2021/07/20 02:54:00;;;;;;;0.40;0.10;;;;;;;18.58;60.81;100310.82;126105;1095;102920;-63
2021/07/20 02:56:27;;;;;;;0.40;0.10;;;;;;;18.65;60.91;100314.01;125872;1095;115307;-63
2021/07/20 02:58:59;;;;;;;0.40;0.10;;;;;;;18.64;61.06;100323.05;126154;1096;102898;-63
2021/07/20 03:01:27;;;;;;;0.40;0.10;;;;;;;18.69;60.57;100313.71;126091;1096;102960;-63
2021/07/20 03:03:55;;;;;;;0.40;0.00;;;;;;;18.75;60.38;100314.30;126019;1095;114174;-63
2021/07/20 03:06:24;;;;;;;0.40;0.10;;;;;;;18.79;59.93;100316.69;126600;1096;103045;-61
2021/07/20 03:08:55;;;;;;;0.40;0.10;;;;;;;18.78;59.98;100319.49;126365;1096;114131;-64
2021/07/20 03:11:23;;;;;;;0.40;0.00;;;;;;;18.75;60.34;100317.00;126005;1095;103012;-63
2021/07/20 03:13:56;;;;;;;0.40;0.00;;;;;;;18.76;60.65;100321.44;125887;1095;102904;-63
2021/07/20 03:16:24;;;;;;;0.40;0.00;;;;;;;18.68;60.78;100319.20;126117;1096;114451;-63
2021/07/20 03:18:52;;;;;;;0.40;0.00;;;;;;;18.60;60.99;100326.91;126074;1095;103033;-63
2021/07/20 03:21:20;;;;;;;0.40;0.10;;;;;;;18.54;61.42;100323.62;125869;1095;114283;-63
2021/07/20 03:23:49;;;;;;;0.40;0.10;;;;;;;18.59;61.28;100326.02;126151;1095;103065;-63
2021/07/20 03:26:17;;;;;;;0.40;0.10;;;;;;;18.63;61.67;100324.87;126040;1096;114369;-63
2021/07/20 03:28:45;;;;;;;0.40;0.10;;;;;;;18.66;61.25;100329.20;126013;1095;103034;-63
2021/07/20 03:31:12;;;;;;;0.40;0.00;;;;;;;18.76;60.61;100327.69;126026;1095;103454;-63
2021/07/20 03:33:40;;;;;;;0.40;0.10;;;;;;;18.86;60.42;100328.00;125860;1095;114679;-63
2021/07/20 03:36:08;;;;;;;0.40;0.10;;;;;;;18.96;60.15;100325.63;125992;1095;102956;-63
2021/07/20 03:38:37;;;;;;;0.40;0.00;;;;;;;19.00;60.17;100325.31;126186;1095;114369;-63
2021/07/20 03:41:05;;;;;;;0.40;0.00;;;;;;;19.00;60.48;100319.06;126011;1095;102925;-63
2021/07/20 03:43:32;;;;;;;0.40;0.00;;;;;;;18.97;60.38;100327.36;126215;1096;103438;-63
2021/07/20 03:46:01;;;;;;;0.40;0.10;;;;;;;19.03;60.24;100326.95;125894;1095;114184;-64
2021/07/20 03:48:30;;;;;;;0.40;0.00;;;;;;;19.08;60.04;100329.38;126259;1096;102911;-63
2021/07/20 03:50:58;;;;;;;0.40;0.10;;;;;;;19.16;60.19;100330.61;126289;1095;114047;-64
2021/07/20 03:53:29;;;;;;;0.40;0.00;;;;;;;19.20;59.63;100321.35;126081;1095;103036;-63
2021/07/20 03:55:59;;;;;;;0.40;0.08;;;;;;;19.20;60.19;100321.35;126158;1095;102948;-63
2021/07/20 03:58:26;;;;;;;0.40;0.10;;;;;;;19.26;59.69;100322.81;126299;1095;114054;-63
2021/07/20 04:00:59;;;;;;;0.40;0.00;;;;;;;19.33;59.68;100323.29;126029;1095;103155;-63
2021/07/20 04:03:27;;;;;;;0.40;0.10;;;;;;;19.38;59.63;100327.42;125994;1096;114226;-63
2021/07/20 04:06:04;;;;;;;0.40;0.00;;;;;;;19.37;59.53;100322.13;126072;1096;102904;-64
2021/07/20 04:08:33;;;;;;;0.40;0.10;;;;;;;19.40;59.59;100332.72;126081;1096;114860;-63
2021/07/20 04:11:01;;;;;;;0.40;0.00;;;;;;;19.45;59.67;100327.03;125923;1096;103154;-63
2021/07/20 04:13:30;;;;;;;0.40;0.00;;;;;;;19.42;59.78;100333.50;125908;1095;102987;-63
2021/07/20 04:16:04;;;;;;;0.40;0.00;;;;;;;19.34;59.47;100327.70;126011;1095;114731;-63
2021/07/20 04:18:31;;;;;;;0.40;0.00;;;;;;;19.40;59.62;100329.16;126154;1095;102892;-63
2021/07/20 04:21:05;;;;;;;0.40;0.10;;;;;;;19.42;59.69;100322.70;126026;1096;114032;-63
2021/07/20 04:23:33;;;;;;;0.40;0.00;;;;;;;19.49;59.64;100329.42;126126;1096;102903;-63
2021/07/20 04:26:01;;;;;;;0.40;0.00;;;;;;;19.56;59.35;100321.78;126172;1095;102903;-63
2021/07/20 04:28:28;;;;;;;0.40;0.00;;;;;;;19.61;59.80;100325.06;126199;1095;114091;-63
2021/07/20 04:30:59;;;;;;;0.40;0.00;;;;;;;19.57;59.53;100330.74;126104;1096;102893;-63
2021/07/20 04:33:34;;;;;;;0.40;0.10;;;;;;;19.62;60.12;100334.91;126020;1095;114165;-63
2021/07/20 04:36:02;;;;;;;0.40;0.00;;;;;;;19.70;59.42;100329.00;125953;1095;103008;-63
2021/07/20 04:38:34;;;;;;;0.40;0.00;;;;;;;19.76;59.89;100331.28;126146;1095;114435;-63
2021/07/20 04:41:01;;;;;;;0.40;0.00;;;;;;;19.81;59.41;100325.63;125973;1096;102904;-64
2021/07/20 04:43:29;;;;;;;0.40;0.00;;;;;;;19.86;59.63;100337.86;126096;1095;103342;-63
2021/07/20 04:45:57;;;;;;;0.40;0.00;;;;;;;19.91;59.28;100337.53;126093;1095;113103;-63
2021/07/20 04:48:25;;;;;;;0.40;0.00;;;;;;;20.00;59.42;100336.92;126202;1096;102919;-63
2021/07/20 04:50:54;;;;;;;0.40;0.00;;;;;;;20.09;59.00;100340.00;126077;1095;114347;-61
2021/07/20 04:53:21;;;;;;;0.40;0.00;;;;;;;20.07;58.76;100340.08;126035;1095;103071;-63
2021/07/20 04:55:51;;;;;;;0.40;0.00;;;;;;;20.06;58.92;100335.66;126216;1095;103108;-63
2021/07/20 04:58:18;;;;;;;0.40;0.00;;;;;;;20.07;59.44;100331.97;126445;1095;114098;-63
2021/07/20 05:00:51;;;;;;;0.40;0.00;;;;;;;20.14;59.21;100335.13;126090;1095;103035;-63
2021/07/20 05:03:21;;;;;;;0.40;0.00;;;;;;;20.20;59.28;100338.28;126068;1095;114181;-63
2021/07/20 05:05:49;;;;;;;0.40;0.00;;;;;;;20.18;59.14;100342.09;126097;1096;102959;-63
2021/07/20 05:08:18;;;;;;;0.40;0.00;;;;;;;20.18;59.38;100350.20;125957;1095;114344;-63
2021/07/20 05:10:50;;;;;;;0.40;0.00;;;;;;;20.18;59.46;100347.50;126170;1096;102914;-63
2021/07/20 05:13:21;;;;;;;0.40;0.00;;;;;;;20.23;59.82;100349.88;125995;1094;103528;-63
2021/07/20 05:15:56;;;;;;;0.40;0.00;;;;;;;20.29;59.96;100349.47;126092;1096;114184;-63
2021/07/20 05:18:24;;;;;;;0.40;0.00;;;;;;;20.34;59.99;100348.17;126117;1096;103018;-64
2021/07/20 05:20:55;;;;;;;0.40;0.00;;;;;;;20.43;60.10;100353.92;125938;1095;114153;-63
2021/07/20 05:23:22;;;;;;;0.40;0.00;;;;;;;20.54;59.82;100360.34;126061;1095;103062;-61
2021/07/20 05:25:55;;;;;;;0.40;0.00;;;;;;;20.64;59.95;100362.41;125982;1095;103422;-62
2021/07/20 05:28:24;;;;;;;0.40;0.00;;;;;;;20.75;60.15;100354.42;126098;1095;114004;-62
2021/07/20 05:30:56;;;;;;;0.40;0.00;;;;;;;20.80;60.27;100349.56;126183;1095;103032;-62
2021/07/20 05:33:24;;;;;;;0.40;0.10;;;;;;;20.82;59.90;100352.16;126010;1096;114167;-62
2021/07/20 05:35:54;;;;;;;0.40;0.00;;;;;;;20.83;59.95;100352.07;126256;1096;103506;-61
2021/07/20 05:38:25;;;;;;;0.40;0.00;;;;;;;20.84;59.78;100350.22;125988;1096;114416;-62
2021/07/20 05:40:57;;;;;;;0.40;0.10;;;;;;;20.84;59.47;100345.66;126203;1096;103336;-63
2021/07/20 05:43:29;;;;;;;0.40;0.00;;;;;;;20.82;59.74;100349.45;126132;1095;103035;-63
2021/07/20 05:46:02;;;;;;;0.40;0.00;;;;;;;20.83;59.90;100356.59;125990;1095;114189;-62
2021/07/20 05:48:30;;;;;;;0.40;0.00;;;;;;;20.87;60.14;100350.88;126240;1096;102921;-62
2021/07/20 05:51:02;;;;;;;0.40;0.00;;;;;;;20.85;60.09;100355.52;126037;1095;114186;-62
2021/07/20 05:53:31;;;;;;;0.40;0.00;;;;;;;20.91;60.12;100351.50;126142;1096;102912;-63
2021/07/20 05:56:01;;;;;;;0.40;0.00;;;;;;;20.98;60.33;100354.64;126166;1096;102963;-64
2021/07/20 05:58:28;;;;;;;0.40;0.00;;;;;;;21.08;60.40;100352.17;126239;1096;113988;-64
2021/07/20 06:01:00;;;;;;;0.40;0.00;;;;;;;21.14;60.23;100347.19;126075;1096;103031;-64
2021/07/20 06:03:28;;;;;;;0.40;0.00;;;;;;;21.19;59.97;100345.02;126024;1095;114185;-64
2021/07/20 06:05:57;;;;;;;0.40;0.00;;;;;;;21.24;60.49;100351.94;126138;1095;102887;-63
2021/07/20 06:08:26;;;;;;;0.40;0.00;;;;;;;21.33;60.39;100348.56;126723;1096;114470;-63
2021/07/20 06:10:59;;;;;;;0.40;0.00;;;;;;;21.40;60.22;100348.98;126161;1095;103389;-62
2021/07/20 06:13:30;;;;;;;0.40;0.00;;;;;;;21.51;60.48;100340.92;126261;1095;103005;-62
2021/07/20 06:15:58;;;;;;;0.40;0.00;;;;;;;21.55;59.78;100339.75;125996;1095;114209;-63
2021/07/20 06:18:26;;;;;;;0.40;0.00;;;;;;;21.57;60.23;100336.95;126000;1096;102974;-62
2021/07/20 06:20:58;;;;;;;0.40;0.00;;;;;;;21.63;60.11;100339.20;125936;1095;114019;-62
2021/07/20 06:23:30;;;;;;;0.40;0.05;;;;;;;21.68;60.27;100348.70;126082;1095;103131;-62
2021/07/20 06:25:57;;;;;;;0.40;0.00;;;;;;;21.75;60.08;100345.55;126094;1095;102913;-63
2021/07/20 06:28:26;;;;;;;0.40;0.00;;;;;;;21.74;59.99;100344.70;125948;1095;114102;-62
2021/07/20 06:30:53;;;;;;;0.40;0.00;;;;;;;21.78;60.34;100340.78;126279;1096;103374;-62
2021/07/20 06:33:21;;;;;;;0.40;0.00;;;;;;;21.87;60.05;100344.63;126087;1095;114554;-62
2021/07/20 06:35:48;;;;;;;0.40;0.00;;;;;;;21.88;60.09;100339.13;125928;1095;102949;-63
2021/07/20 06:38:18;;;;;;;0.40;0.00;;;;;;;22.02;59.70;100342.64;125871;1095;114475;-62
2021/07/20 06:40:49;;;;;;;0.40;0.00;;;;;;;22.07;60.28;100347.70;126084;1095;102883;-62
2021/07/20 06:43:16;;;;;;;0.40;0.00;;;;;;;22.05;59.59;100342.40;126076;1095;102955;-62
2021/07/20 06:45:46;;;;;;;0.40;0.00;;;;;;;22.06;60.20;100352.27;125834;1095;114391;-61
2021/07/20 06:48:15;;;;;;;0.40;0.00;;;;;;;22.09;59.64;100343.89;126204;1096;103033;-61
2021/07/20 06:50:43;;;;;;;0.40;0.00;;;;;;;22.18;59.84;100345.91;126276;1095;114480;-62
2021/07/20 06:53:14;;;;;;;0.40;0.00;;;;;;;22.29;59.54;100342.38;126126;1096;102926;-61
2021/07/20 06:56:02;;;;;;;0.40;0.00;;;;;;;22.41;59.51;100348.73;126209;1096;102910;-62
2021/07/20 06:58:31;;;;;;;0.40;0.00;;;;;;;22.46;59.15;100343.83;126061;1095;114021;-63
2021/07/20 07:01:00;;;;;;;0.40;0.00;;;;;;;22.52;58.84;100346.05;126375;1096;102890;-61
2021/07/20 07:03:48;;;;;;;0.40;0.00;;;;;;;22.60;59.24;100350.03;125963;1096;114370;-62
2021/07/20 07:06:16;;;;;;;0.40;0.00;;;;;;;22.67;58.27;100348.55;125963;1095;102955;-62
2021/07/20 07:08:44;;;;;;;0.40;0.00;;;;;;;22.69;58.44;100339.31;126075;1096;113293;-62
2021/07/20 07:11:15;;;;;;;0.40;0.00;;;;;;;22.76;57.76;100338.84;126121;1096;103016;-62
2021/07/20 07:13:42;;;;;;;0.40;0.00;;;;;;;22.80;57.41;100335.75;126142;1096;103008;-62
2021/07/20 07:16:10;;;;;;;0.40;0.00;;;;;;;22.89;57.61;100334.17;126039;1095;114554;-63
2021/07/20 07:18:38;;;;;;;0.40;0.00;;;;;;;22.95;57.56;100332.81;125988;1095;102916;-62
2021/07/20 07:21:06;;;;;;;0.40;0.00;;;;;;;22.99;57.29;100334.28;126318;1095;114244;-63
2021/07/20 07:23:34;;;;;;;0.40;0.00;;;;;;;23.01;57.53;100335.89;126035;1095;103055;-61
2021/07/20 07:26:02;;;;;;;0.40;0.00;;;;;;;23.04;56.82;100332.08;126002;1095;102949;-63
2021/07/20 07:28:31;;;;;;;0.40;0.00;;;;;;;23.19;56.91;100335.44;126142;1095;114114;-62
2021/07/20 07:30:59;;;;;;;0.40;0.00;;;;;;;23.34;56.36;100338.79;126045;1096;102917;-63
2021/07/20 07:33:26;;;;;;;0.40;0.00;;;;;;;23.35;56.00;100333.23;125839;1095;114150;-62
2021/07/20 07:35:54;;;;;;;0.40;0.00;;;;;;;23.40;56.29;100340.14;126096;1095;102980;-62
2021/07/20 07:38:22;;;;;;;0.40;0.00;;;;;;;23.48;55.27;100334.94;126085;1096;116400;-63
2021/07/20 07:40:55;;;;;;;0.40;0.00;;;;;;;23.54;55.10;100327.14;126092;1096;103126;-63
2021/07/20 07:43:25;;;;;;;0.40;0.00;;;;;;;23.68;55.84;100336.01;126388;1095;102926;-63
2021/07/20 07:45:54;;;;;;;0.40;0.00;;;;;;;23.71;54.91;100335.75;125818;1095;113457;-63
2021/07/20 07:48:23;;;;;;;0.40;0.00;;;;;;;23.85;53.54;100340.05;126160;1095;103193;-63
2021/07/20 07:50:52;;;;;;;0.40;0.00;;;;;;;23.92;52.94;100337.72;126095;1096;114412;-62
2021/07/20 07:53:19;;;;;;;0.40;0.00;;;;;;;23.92;52.71;100338.58;126052;1096;103181;-61
2021/07/20 07:55:50;;;;;;;0.40;0.00;;;;;;;23.93;52.31;100342.17;125975;1095;102916;-61
2021/07/20 07:58:18;;;;;;;0.40;0.00;;;;;;;23.91;52.73;100338.70;125931;1096;113334;-63
2021/07/20 08:00:47;;;;;;;0.40;0.00;;;;;;;23.90;52.20;100346.02;126012;1096;103025;-62
2021/07/20 08:03:16;;;;;;;0.40;0.00;;;;;;;23.98;51.63;100340.79;125872;1096;114376;-63
2021/07/20 08:05:46;;;;;;;0.40;0.00;;;;;;;24.08;51.21;100338.14;126208;1095;103055;-62
2021/07/20 08:08:14;;;;;;;0.40;0.00;;;;;;;24.18;50.62;100338.25;126181;1094;114345;-63
2021/07/20 08:10:43;;;;;;;0.40;0.00;;;;;;;24.24;50.18;100337.71;126102;1096;102996;-61
2021/07/20 08:13:11;;;;;;;0.40;0.00;;;;;;;24.41;51.45;100341.72;126198;1096;103636;-61
2021/07/20 08:15:39;;;;;;;0.40;0.00;;;;;;;24.52;50.02;100338.08;125971;1096;114198;-61
2021/07/20 08:18:07;;;;;;;0.40;0.00;;;;;;;24.49;49.94;100336.48;125991;1095;102925;-60
2021/07/20 08:20:34;;;;;;;0.40;0.00;;;;;;;24.51;49.92;100341.78;126048;1096;114409;-62
2021/07/20 08:23:06;;;;;;;0.40;0.00;;;;;;;24.42;48.53;100332.56;126121;1095;103074;-61
2021/07/20 08:25:39;;;;;;;0.40;0.00;;;;;;;24.51;48.64;100337.22;126226;1096;103019;-61
2021/07/20 08:28:14;;;;;;;0.40;0.00;;;;;;;24.59;49.16;100338.41;126189;1095;113145;-61
2021/07/20 08:30:43;;;;;;;0.40;0.00;;;;;;;24.62;49.15;100338.13;126140;1095;103061;-61
2021/07/20 08:33:12;;;;;;;0.40;0.00;;;;;;;24.53;49.04;100342.53;126016;1095;113125;-61
2021/07/20 08:35:41;;;;;;;0.40;0.00;;;;;;;24.57;48.58;100343.98;126078;1095;102975;-63
2021/07/20 08:38:10;;;;;;;0.40;0.00;;;;;;;24.78;48.11;100333.13;125930;1095;114214;-62
2021/07/20 08:40:50;;;;;;;0.40;0.00;;;;;;;25.00;47.71;100339.41;126105;1096;102963;-61
2021/07/20 08:43:55;;;;;;;0.40;0.00;;;;;;;25.14;47.16;100338.20;126066;1096;103025;-60
2021/07/20 08:46:57;;;;;;;0.40;0.00;;;;;;;25.23;46.16;100336.50;126025;1095;114643;-61
2021/07/20 08:49:56;;;;;;;0.40;0.00;;;;;;;25.19;45.13;100335.89;125926;1095;102933;-63
2021/07/20 08:52:48;;;;;;;0.40;0.00;;;;;;;25.23;45.56;100337.34;126052;1095;114028;-62
2021/07/20 08:55:24;;;;;;;0.40;0.00;;;;;;;25.23;45.91;100344.67;125883;1095;102916;-62
2021/07/20 08:57:56;;;;;;;0.40;0.00;;;;;;;25.23;46.02;100341.95;125930;1096;113170;-61
2021/07/20 09:00:25;;;;;;;0.40;0.00;;;;;;;25.42;46.23;100336.61;126163;1096;102889;-61
2021/07/20 09:03:08;;;;;;;0.40;0.00;;;;;;;25.64;45.67;100334.66;126088;1096;114213;-61
2021/07/20 09:06:11;;;;;;;0.40;0.00;;;;;;;25.90;44.96;100331.39;126126;1095;102904;-63
2021/07/20 09:08:54;;;;;;;0.40;0.00;;;;;;;26.12;45.17;100331.16;126065;1096;114836;-61
2021/07/20 09:11:23;;;;;;;0.40;0.00;;;;;;;26.40;43.93;100331.30;126144;1095;102906;-61
2021/07/20 09:13:58;;;;;;;0.40;0.00;;;;;;;26.56;44.55;100322.51;126121;1095;102890;-62
2021/07/20 09:16:34;;;;;;;0.40;0.00;;;;;;;26.80;43.66;100321.20;126001;1095;114333;-61
2021/07/20 09:19:14;;;;;;;0.40;0.00;;;;;;;26.85;41.95;100318.89;126243;1096;102897;-61
2021/07/20 09:21:46;;;;;;;0.40;0.00;;;;;;;27.07;42.99;100319.53;126038;1095;113643;-61
2021/07/20 09:24:18;;;;;;;0.40;0.00;;;;;;;27.27;42.35;100325.78;126447;1096;102930;-61
2021/07/20 09:27:00;;;;;;;0.40;0.00;;;;;;;27.36;41.46;100312.08;126087;1096;114350;-61
2021/07/20 09:29:29;;;;;;;0.40;0.00;;;;;;;27.24;41.03;100313.27;126153;1096;103480;-62
2021/07/20 09:32:07;;;;;;;0.40;0.00;;;;;;;27.07;41.95;100317.68;126206;1096;102888;-60
2021/07/20 09:34:40;;;;;;;0.40;0.00;;;;;;;26.91;42.43;100310.11;125994;1095;114011;-61
2021/07/20 09:37:14;;;;;;;0.40;0.00;;;;;;;26.89;41.44;100303.07;126097;1096;102891;-60
2021/07/20 09:39:59;;;;;;;0.40;0.00;;;;;;;26.90;41.41;100308.38;126014;1096;114571;-60
2021/07/20 09:42:37;;;;;;;0.40;0.00;;;;;;;26.84;42.31;100309.84;126210;1095;102894;-60
2021/07/20 09:45:07;;;;;;;0.40;0.00;;;;;;;27.07;42.94;100306.74;126068;1095;114190;-60
2021/07/20 09:48:00;;;;;;;0.40;0.00;;;;;;;27.07;41.85;100308.59;126142;1096;103462;-60
2021/07/20 09:50:33;;;;;;;0.40;0.00;;;;;;;27.06;41.62;100302.28;126045;1095;114516;-60
2021/07/20 09:53:22;;;;;;;0.40;0.00;;;;;;;27.80;42.16;100299.59;126173;1095;102892;-60
2021/07/20 09:56:11;;;;;;;0.40;0.00;;;;;;;29.04;38.33;100287.76;126166;1096;103035;-60
2021/07/20 09:58:58;;;;;;;0.40;0.00;;;;;;;30.34;36.23;100288.30;126031;1095;114178;-60
2021/07/20 10:01:38;;;;;;;0.40;0.00;;;;;;;31.58;34.08;100292.65;126315;1096;103036;-61
2021/07/20 10:04:10;;;;;;;0.40;0.00;;;;;;;31.59;33.15;100286.95;125995;1095;114229;-61
2021/07/20 10:06:47;;;;;;;0.40;0.00;;;;;;;31.74;33.34;100298.08;126103;1096;103096;-61
2021/07/20 10:09:25;;;;;;;0.40;0.00;;;;;;;31.42;34.48;100290.84;126172;1095;114304;-60
2021/07/20 10:12:07;;;;;;;0.40;0.00;;;;;;;32.69;32.73;100282.16;126159;1095;103048;-61
2021/07/20 10:15:03;;;;;;;0.40;0.00;;;;;;;33.22;30.77;100287.63;126071;1096;114509;-61
2021/07/20 10:17:35;;;;;;;0.40;0.00;;;;;;;32.48;31.52;100285.64;126135;1095;102932;-60
2021/07/20 10:20:20;;;;;;;0.40;0.00;;;;;;;31.95;31.91;100291.92;126014;1095;103533;-60
2021/07/20 10:22:53;;;;;;;0.40;0.00;;;;;;;33.09;30.83;100281.93;126015;1096;114145;-62
2021/07/20 10:25:42;;;;;;;0.40;0.00;;;;;;;33.90;28.64;100276.38;126202;1095;103092;-61
2021/07/20 10:28:23;;;;;;;0.40;0.00;;;;;;;35.01;27.67;100276.89;126055;1095;113054;-61
2021/07/20 10:31:09;;;;;;;0.40;0.00;;;;;;;35.92;26.53;100273.88;126024;1096;103030;-61
2021/07/20 10:34:02;;;;;;;0.40;0.00;;;;;;;36.30;26.41;100273.25;126025;1095;114159;-61
2021/07/20 10:36:36;;;;;;;0.40;0.00;;;;;;;36.26;25.76;100273.90;126110;1095;102914;-61
2021/07/20 10:39:10;;;;;;;0.40;0.00;;;;;;;37.13;24.82;100269.09;126083;1095;114350;-61
2021/07/20 10:41:43;;;;;;;0.40;0.00;;;;;;;37.88;23.93;100277.98;126033;1095;102886;-61
2021/07/20 10:44:30;;;;;;;0.40;0.00;;;;;;;37.39;23.97;100266.47;125975;1096;102999;-61
2021/07/20 10:46:59;;;;;;;0.40;0.00;;;;;;;35.77;25.22;100287.02;125983;1096;114140;-61
2021/07/20 10:50:01;;;;;;;0.40;0.00;;;;;;;34.54;27.44;100271.02;126147;1095;102959;-61
2021/07/20 10:52:41;;;;;;;0.40;0.00;;;;;;;33.39;28.00;100274.50;125485;1095;114390;-61
2021/07/20 10:55:33;;;;;;;0.40;0.00;;;;;;;32.45;30.07;100267.58;125998;1095;102989;-61
2021/07/20 10:58:22;;;;;;;0.40;0.00;;;;;;;31.79;30.79;100281.88;125885;1095;114181;-61
2021/07/20 11:01:03;;;;;;;0.40;0.00;;;;;;;31.12;32.12;100274.10;126157;1095;102924;-61
2021/07/20 11:03:42;;;;;;;0.40;0.00;;;;;;;30.73;32.97;100267.48;125938;1095;114250;-61
2021/07/20 11:06:11;;;;;;;0.40;0.00;;;;;;;30.55;33.17;100277.83;126013;1095;103370;-61
2021/07/20 11:08:46;;;;;;;0.40;0.00;;;;;;;30.46;32.92;100268.75;126123;1096;114376;-60
2021/07/20 11:11:19;;;;;;;0.40;0.00;;;;;;;30.49;32.77;100263.75;126141;1095;102968;-61
2021/07/20 11:13:50;;;;;;;0.40;0.00;;;;;;;30.44;32.58;100260.63;126177;1095;102900;-61
2021/07/20 11:16:19;;;;;;;0.40;0.00;;;;;;;30.41;32.58;100262.88;126105;1096;114194;-60
2021/07/20 11:18:49;;;;;;;0.40;0.00;;;;;;;30.42;32.88;100250.87;126148;1096;102902;-60
2021/07/20 11:21:21;;;;;;;0.40;0.00;;;;;;;30.41;33.69;100260.14;125959;1095;114342;-61
2021/07/20 11:23:49;;;;;;;0.40;0.00;;;;;;;30.29;33.79;100259.63;126170;1095;102965;-61
2021/07/20 11:26:17;;;;;;;0.40;0.00;;;;;;;29.95;33.54;100250.53;126154;1096;102923;-61
2021/07/20 11:28:45;;;;;;;0.40;0.00;;;;;;;29.55;34.46;100265.01;126096;1096;114180;-61
2021/07/20 11:31:22;;;;;;;0.40;0.00;;;;;;;29.14;34.33;100268.45;126321;1095;103092;-60
2021/07/20 11:34:19;;;;;;;0.40;0.00;;;;;;;28.71;34.09;100260.19;126011;1095;114219;-60
2021/07/20 11:36:47;;;;;;;0.40;0.00;;;;;;;28.40;34.34;100252.39;126010;1095;102886;-60